Border Field (334) Station Data

Red Flag Warning: No
Fire Weather Zone: 243
SDGE Region: Metro
Lat/Lon: 32.542/-117.097

Observations

Time Wind Speed/Gust Temp(F) RH Fuel Moist Fuel Temp(F) Dewpt(F) Tmax(F) Tmin(F) Accum Precip 10-min Precip SL Press(mb)
4/26 2:40am 211 1 G 2 57° 85% - - 53° 57.8° 56.7° - - -
4/26 2:30am 189 2 G 3 57° 86% - - 53° 57.8° 56.7° - - -
4/26 2:20am 196 2 G 3 57° 86% - - 53° 57.8° 56.7° - - -
4/26 2:00am 221 1 G 2 57° 86% - - 53° 57.8° 56.7° - - -
4/26 1:50am 189 2 G 3 57° 86% - - 53° 57.8° 56.7° - - -
4/26 1:40am 185 2 G 3 57° 86% - - 53° 57.8° 56.9° - - -
4/26 1:30am 190 3 G 3 57° 86% - - 53° 57.8° 56.9° - - -
4/26 1:20am 193 3 G 4 57° 86% - - 53° 57.8° 56.9° - - -
4/26 1:10am 203 2 G 4 57° 87% - - 53° 57.8° 56.9° - - -
4/26 1:00am 181 4 G 4 57° 88% - - 54° 57.8° 56.9° - - -
4/26 12:50am 191 4 G 4 57° 88% - - 54° 57.8° 56.9° - - -
4/26 12:40am 202 3 G 5 57° 87% - - 54° 57.8° 57° - - -
4/26 12:30am 196 3 G 4 57° 88% - - 54° 57.8° 57° - - -
4/26 12:20am 184 4 G 5 57° 88% - - 54° 57.8° 57° - - -
4/26 12:10am 192 4 G 5 57° 87% - - 54° 57.8° 57° - - -
4/26 12:00am 193 4 G 5 57° 87% - - 54° 64.4° 57.2° - - -
4/25 11:50pm 210 3 G 4 58° 87% - - 54° 64.4° 57.2° - - -
4/25 11:40pm 211 3 G 4 58° 87% - - 54° 64.4° 57.2° - - -
4/25 11:30pm 206 3 G 4 58° 86% - - 54° 64.4° 57.4° - - -
4/25 11:20pm 198 3 G 5 58° 86% - - 54° 64.4° 57.6° - - -
4/25 11:10pm 211 3 G 4 58° 86% - - 54° 64.4° 57.6° - - -
4/25 11:00pm 221 3 G 5 58° 86% - - 54° 64.4° 57.6° - - -
4/25 10:50pm 212 3 G 4 58° 85% - - 54° 64.4° 57.6° - - -
4/25 10:40pm 194 3 G 4 58° 85% - - 54° 64.4° 57.6° - - -
4/25 10:30pm 212 2 G 3 58° 85% - - 54° 64.4° 57.6° - - -
4/25 10:20pm 200 2 G 3 58° 85% - - 54° 64.4° 57.6° - - -
4/25 10:10pm 233 3 G 4 58° 85% - - 54° 64.4° 57.6° - - -
4/25 10:00pm 225 2 G 5 58° 85% - - 54° 64.4° 57.6° - - -
4/25 9:50pm 257 5 G 7 58° 84% - - 54° 64.4° 57.6° - - -
4/25 9:40pm 222 3 G 7 59° 83% - - 54° 64.4° 57.6° - - -
4/25 9:30pm 165 2 G 4 59° 84% - - 54° 64.4° 57.6° - - -
4/25 9:20pm 191 2 G 3 58° 85% - - 54° 64.4° 57.6° - - -
4/25 9:10pm 265 1 G 3 58° 85% - - 54° 64.4° 57.6° - - -
4/25 9:00pm 266 4 G 5 59° 86% - - 54° 64.4° 57.6° - - -
4/25 8:50pm 258 3 G 6 59° 85% - - 54° 64.4° 57.6° - - -
4/25 8:40pm 248 4 G 6 59° 84% - - 54° 64.4° 57.6° - - -
4/25 8:30pm 266 5 G 6 59° 84% - - 54° 64.4° 57.6° - - -
4/25 8:20pm 276 5 G 6 59° 85% - - 54° 64.4° 57.6° - - -
4/25 8:10pm 264 5 G 6 59° 84% - - 54° 64.4° 57.6° - - -
4/25 8:00pm 262 5 G 7 59° 84% - - 54° 64.4° 57.6° - - -
4/25 7:50pm 260 4 G 5 59° 84% - - 54° 64.4° 57.6° - - -
4/25 7:40pm 259 4 G 6 59° 84% - - 55° 64.4° 57.6° - - -
4/25 7:30pm 255 4 G 5 60° 83% - - 54° 64.4° 57.6° - - -
4/25 7:20pm 266 3 G 6 60° 82% - - 55° 64.4° 57.6° - - -
4/25 7:10pm 270 4 G 7 60° 82% - - 55° 64.4° 57.6° - - -
4/25 7:00pm 280 6 G 8 60° 82% - - 55° 64.4° 57.6° - - -
4/25 6:50pm 284 6 G 9 61° 81% - - 55° 64.4° 57.6° - - -
4/25 6:40pm 287 7 G 10 61° 79% - - 55° 64.4° 57.6° - - -
4/25 6:30pm 281 6 G 9 61° 79% - - 55° 64.4° 57.6° - - -
4/25 6:20pm 285 8 G 10 61° 80% - - 55° 64.4° 57.6° - - -
4/25 6:10pm 286 8 G 12 61° 80% - - 55° 64.4° 57.6° - - -
4/25 6:00pm 291 8 G 12 62° 79% - - 55° 64.4° 57.6° - - -
4/25 5:50pm 296 8 G 11 62° 80% - - 56° 64.4° 57.6° - - -
4/25 5:40pm 284 8 G 13 62° 79% - - 55° 64.4° 57.6° - - -
4/25 5:30pm 267 7 G 10 62° 79% - - 55° 64.4° 57.6° - - -
4/25 5:20pm 270 7 G 11 61° 80% - - 55° 64.4° 57.6° - - -
4/25 5:10pm 275 7 G 12 61° 81% - - 55° 64.4° 57.6° - - -
4/25 5:00pm 269 6 G 11 61° 82% - - 55° 64.4° 57.6° - - -
4/25 4:50pm 261 7 G 12 61° 80% - - 55° 64.4° 57.6° - - -
4/25 4:40pm 280 7 G 12 62° 80% - - 55° 64.4° 57.6° - - -
4/25 4:30pm 261 8 G 12 61° 80% - - 55° 64.4° 57.6° - - -
4/25 4:20pm 269 7 G 13 62° 78% - - 55° 64.4° 57.6° - - -
4/25 4:10pm 292 8 G 13 62° 78% - - 55° 64.4° 57.6° - - -
4/25 4:00pm 274 10 G 15 62° 78% - - 55° 64.4° 57.6° - - -
4/25 3:50pm 278 9 G 15 62° 78% - - 55° 64.4° 57.6° - - -
4/25 3:40pm 263 10 G 17 63° 77% - - 55° 64.4° 57.6° - - -
4/25 3:30pm 259 10 G 14 62° 77% - - 55° 64.4° 57.6° - - -
4/25 3:20pm 264 10 G 15 62° 77% - - 55° 64.4° 57.6° - - -
4/25 3:10pm 265 9 G 14 62° 77% - - 55° 64.4° 57.6° - - -
4/25 3:00pm 264 9 G 15 62° 77% - - 55° 64.4° 57.6° - - -
4/25 2:50pm 266 9 G 13 62° 77% - - 55° 64.4° 57.6° - - -
4/25 2:40pm 269 8 G 13 62° 80% - - 55° 64.4° 57.6° - - -
4/25 2:30pm 281 9 G 15 62° 79% - - 55° 64.4° 57.6° - - -
4/25 2:20pm 271 8 G 14 62° 80% - - 55° 64.4° 57.6° - - -
4/25 2:10pm 284 9 G 14 61° 80% - - 55° 64.4° 57.6° - - -
4/25 2:00pm 270 7 G 12 62° 79% - - 56° 64.4° 57.6° - - -
4/25 1:50pm 280 9 G 13 61° 81% - - 55° 64.4° 57.6° - - -
4/25 1:40pm 250 9 G 14 62° 80% - - 55° 64.4° 57.6° - - -
4/25 1:30pm 251 10 G 15 62° 80% - - 55° 64.4° 57.6° - - -
4/25 1:20pm 250 10 G 16 62° 79% - - 56° 64.4° 57.6° - - -
4/25 1:10pm 257 11 G 18 62° 79% - - 56° 64.4° 57.6° - - -
4/25 1:00pm 250 12 G 19 62° 78% - - 56° 64.4° 57.6° - - -
4/25 12:50pm 253 13 G 19 62° 79% - - 55° 64.4° 57.6° - - -
4/25 12:40pm 253 13 G 19 63° 78% - - 56° 64.4° 57.6° - - -
4/25 12:30pm 257 12 G 18 63° 78% - - 56° 64.4° 57.6° - - -
4/25 12:20pm 255 13 G 19 62° 78% - - 56° 64.4° 57.6° - - -
4/25 12:10pm 253 11 G 17 63° 78% - - 56° 64.4° 57.6° - - -
4/25 12:00pm 257 12 G 17 63° 78% - - 56° 64.3° 57.6° - - -
4/25 11:50am 261 11 G 19 63° 78% - - 56° 64.3° 57.6° - - -
4/25 11:40am 251 11 G 17 62° 79% - - 56° 64.3° 57.6° - - -
4/25 11:30am 247 11 G 17 62° 78% - - 55° 64.3° 57.6° - - -
4/25 11:20am 244 11 G 16 63° 77% - - 55° 64.3° 57.6° - - -
4/25 11:10am 241 11 G 16 62° 75% - - 54° 64.3° 57.6° - - -
4/25 11:00am 232 11 G 17 63° 74% - - 54° 64.3° 57.6° - - -
4/25 10:50am 238 11 G 14 63° 72% - - 54° 64.3° 57.6° - - -
4/25 10:40am 235 10 G 14 63° 71% - - 54° 64.3° 57.6° - - -
4/25 10:30am 232 9 G 13 63° 73% - - 54° 63.6° 57.6° - - -
4/25 10:20am 237 9 G 14 63° 75% - - 54° 63.1° 57.6° - - -
4/25 10:10am 239 9 G 13 62° 75% - - 55° 63.1° 57.6° - - -
4/25 10:00am 240 9 G 15 62° 77% - - 55° 63.1° 57.6° - - -
4/25 9:50am 243 8 G 12 62° 78% - - 55° 63.1° 57.6° - - -
4/25 9:40am 236 8 G 13 62° 78% - - 55° 63.1° 57.6° - - -
4/25 9:30am 220 7 G 13 62° 78% - - 55° 63.1° 57.6° - - -
4/25 9:20am 232 9 G 15 61° 80% - - 55° 63.1° 57.6° - - -
4/25 9:10am 220 9 G 15 62° 77% - - 55° 63.1° 57.6° - - -
4/25 9:00am 210 8 G 13 63° 76% - - 55° 63.1° 57.6° - - -
4/25 8:50am 208 8 G 15 62° 77% - - 55° 63.1° 57.6° - - -
4/25 8:40am 199 10 G 17 62° 76% - - 54° 62.6° 57.6° - - -
4/25 8:30am 201 8 G 17 62° 76% - - 54° 62.6° 57.6° - - -
4/25 8:20am 189 9 G 15 61° 78% - - 54° 61.7° 57.6° - - -
4/25 8:10am 186 10 G 17 60° 80% - - 54° 61.1° 57.6° - - -
4/25 8:00am 181 10 G 15 60° 82% - - 54° 60.5° 57.6° - - -
4/25 7:50am 184 10 G 15 59° 84% - - 54° 60.3° 57.6° - - -
4/25 7:40am 179 12 G 17 59° 85% - - 54° 59.8° 57.6° - - -
4/25 7:30am 181 10 G 14 59° 86% - - 54° 59.8° 57.6° - - -
4/25 7:20am 178 11 G 16 58° 86% - - 54° 59.8° 57.6° - - -
4/25 7:10am 181 10 G 15 58° 86% - - 54° 59.8° 57.6° - - -
4/25 7:00am 178 9 G 13 58° 86% - - 54° 59.8° 57.6° - - -
4/25 6:50am 180 10 G 15 58° 86% - - 54° 59.8° 57.6° - - -
4/25 6:40am 182 8 G 13 58° 87% - - 54° 59.8° 57.6° - - -
4/25 6:30am 184 9 G 13 58° 86% - - 54° 59.8° 57.6° - - -
4/25 6:20am 188 9 G 15 58° 86% - - 54° 59.8° 57.6° - - -
4/25 6:10am 192 7 G 12 58° 86% - - 54° 59.8° 57.6° - - -
4/25 6:00am 187 8 G 13 58° 86% - - 54° 59.8° 57.6° - - -
4/25 5:50am 184 8 G 13 58° 85% - - 54° 59.8° 57.6° - - -
4/25 5:40am 181 8 G 12 58° 86% - - 54° 59.8° 57.6° - - -
4/25 5:30am 178 9 G 13 58° 87% - - 54° 59.8° 57.6° - - -
4/25 5:20am 179 9 G 13 58° 88% - - 54° 59.8° 57.6° - - -
4/25 5:10am 184 7 G 13 58° 88% - - 54° 59.8° 57.6° - - -
4/25 5:00am 182 9 G 13 58° 88% - - 55° 59.8° 57.7° - - -
4/25 4:50am 182 8 G 13 58° 88% - - 55° 59.8° 57.8° - - -
4/25 4:40am 184 6 G 11 58° 87% - - 55° 59.8° 57.8° - - -
4/25 4:30am 193 5 G 9 58° 87% - - 55° 59.8° 57.8° - - -
4/25 4:20am 189 6 G 10 58° 87% - - 54° 59.8° 57.8° - - -
4/25 4:10am 192 5 G 7 58° 86% - - 54° 59.8° 57.8° - - -
4/25 4:00am 188 5 G 7 58° 85% - - 54° 59.8° 57.8° - - -
4/25 3:50am 198 4 G 7 58° 86% - - 54° 59.8° 57.8° - - -
4/25 3:40am 192 5 G 9 58° 87% - - 54° 59.8° 57.8° - - -
4/25 3:30am 203 4 G 7 58° 86% - - 54° 59.8° 57.9° - - -
4/25 3:20am 212 4 G 8 58° 86% - - 54° 59.8° 58° - - -
4/25 3:10am 226 5 G 9 58° 86% - - 54° 59.8° 58.1° - - -
4/25 3:00am 242 6 G 10 58° 87% - - 55° 59.8° 58.1° - - -
4/25 2:50am 223 5 G 8 58° 87% - - 55° 59.8° 58.1° - - -
4/25 2:40am 202 6 G 10 59° 85% - - 54° 59.8° 58.2° - - -
4/25 2:30am 200 6 G 12 59° 84% - - 54° 59.8° 58.5° - - -
4/25 2:20am 209 5 G 10 59° 84% - - 54° 59.8° 58.5° - - -
4/25 2:10am 211 5 G 9 59° 86% - - 55° 59.8° 58.5° - - -
4/25 2:00am 196 6 G 10 59° 85% - - 54° 59.8° 58.6° - - -
4/25 1:50am 195 6 G 12 59° 82% - - 54° 59.8° 58.6° - - -
4/25 1:40am 195 7 G 12 59° 80% - - 53° 59.8° 58.8° - - -
4/25 1:30am 201 4 G 7 59° 79% - - 53° 59.8° 58.8° - - -
4/25 1:20am 203 3 G 6 59° 78% - - 52° 59.8° 58.8° - - -
4/25 1:10am 204 2 G 4 59° 77% - - 52° 59.8° 58.8° - - -
4/25 1:00am 206 3 G 5 59° 75% - - 51° 59.7° 58.8° - - -
4/25 12:50am 217 4 G 9 59° 75% - - 51° 59.7° 58.8° - - -
4/25 12:40am 217 4 G 9 59° 75% - - 51° 59.7° 58.8° - - -
4/25 12:30am 236 5 G 9 59° 77% - - 52° 59.7° 58.8° - - -
4/25 12:20am 244 6 G 8 59° 78% - - 52° 59.7° 58.8° - - -
4/25 12:10am 241 5 G 8 59° 79% - - 53° 59.7° 58.8° - - -
4/25 12:00am 242 6 G 9 59° 81% - - 53° 66.1° 57.6° - - -
4/24 11:50pm 266 6 G 11 59° 82% - - 54° 66.1° 57.6° - - -
4/24 11:40pm 253 8 G 11 59° 78% - - 53° 66.1° 57.6° - - -
4/24 11:30pm 251 8 G 11 60° 79% - - 53° 66.1° 57.6° - - -
4/24 11:20pm 234 6 G 12 60° 80% - - 54° 66.1° 57.6° - - -
4/24 11:10pm 226 5 G 10 60° 80% - - 53° 66.1° 57.6° - - -
4/24 11:00pm 218 6 G 10 59° 80% - - 53° 66.1° 57.6° - - -
4/24 10:50pm 204 4 G 7 59° 81% - - 54° 66.1° 57.6° - - -
4/24 10:40pm 203 5 G 9 59° 82% - - 54° 66.1° 57.6° - - -
4/24 10:30pm 220 6 G 10 59° 82% - - 54° 66.1° 57.6° - - -
4/24 10:20pm 217 4 G 7 59° 82% - - 54° 66.1° 57.6° - - -
4/24 10:10pm 224 5 G 10 59° 82% - - 54° 66.1° 57.6° - - -
4/24 10:00pm 241 7 G 10 59° 82% - - 54° 66.1° 57.6° - - -
4/24 9:50pm 223 5 G 10 59° 82% - - 54° 66.1° 57.6° - - -
4/24 9:40pm 226 5 G 10 59° 82% - - 54° 66.1° 57.6° - - -
4/24 9:30pm 229 5 G 9 59° 82% - - 54° 66.1° 57.6° - - -
4/24 9:20pm 228 5 G 9 59° 83% - - 54° 66.1° 57.6° - - -
4/24 9:10pm 224 4 G 7 59° 83% - - 54° 66.1° 57.6° - - -
4/24 9:00pm 223 4 G 7 59° 83% - - 54° 66.1° 57.6° - - -
4/24 8:50pm 226 4 G 5 59° 83% - - 54° 66.1° 57.6° - - -
4/24 8:40pm 223 3 G 5 59° 82% - - 54° 66.1° 57.6° - - -
4/24 8:30pm 231 3 G 5 59° 82% - - 54° 66.1° 57.6° - - -
4/24 8:20pm 229 2 G 5 59° 82% - - 53° 66.1° 57.6° - - -
4/24 8:10pm 232 6 G 10 59° 81% - - 53° 66.1° 57.6° - - -
4/24 8:00pm 240 7 G 10 59° 82% - - 54° 66.1° 57.6° - - -
4/24 7:50pm 231 7 G 11 59° 82% - - 53° 66.1° 57.6° - - -
4/24 7:40pm 233 6 G 9 59° 82% - - 54° 66.1° 57.6° - - -
4/24 7:30pm 244 6 G 10 59° 82% - - 54° 66.1° 57.6° - - -
4/24 7:20pm 234 6 G 10 59° 82% - - 54° 66.1° 57.6° - - -
4/24 7:10pm 234 6 G 11 59° 82% - - 54° 66.1° 57.6° - - -
4/24 7:00pm 210 4 G 9 59° 82% - - 54° 66.1° 57.6° - - -
4/24 6:50pm 212 5 G 7 59° 82% - - 54° 66.1° 57.6° - - -
4/24 6:40pm 226 6 G 10 59° 82% - - 54° 66.1° 57.6° - - -
4/24 6:30pm 225 7 G 12 59° 82% - - 54° 66.1° 57.6° - - -
4/24 6:20pm 240 9 G 13 60° 81% - - 54° 66.1° 57.6° - - -
4/24 6:10pm 236 9 G 13 60° 79% - - 54° 66.1° 57.6° - - -
4/24 6:00pm 222 6 G 10 61° 77% - - 54° 66.1° 57.6° - - -